createdAt,value
2018-04-27T00:00:42.452Z,6.87
2018-04-27T00:01:42.408Z,6.86
2018-04-27T00:02:42.360Z,6.89
2018-04-27T00:03:42.319Z,6.83
2018-04-27T00:04:42.271Z,6.87
2018-04-27T00:05:42.225Z,6.92
2018-04-27T00:06:42.180Z,6.72
2018-04-27T00:07:42.136Z,6.85
2018-04-27T00:08:42.088Z,6.82
2018-04-27T00:09:42.040Z,6.80
2018-04-27T00:10:42.003Z,6.78
2018-04-27T00:11:41.971Z,6.85
2018-04-27T00:12:41.911Z,6.78
2018-04-27T00:13:41.856Z,6.82
2018-04-27T00:14:41.814Z,6.72
2018-04-27T00:15:41.768Z,6.77
2018-04-27T00:16:41.737Z,6.82
2018-04-27T00:17:41.677Z,6.83
2018-04-27T00:18:41.630Z,6.75
2018-04-27T00:19:41.584Z,6.78
2018-04-27T00:20:41.537Z,6.82
2018-04-27T00:21:41.490Z,6.71
2018-04-27T00:22:41.445Z,6.75
2018-04-27T00:23:41.405Z,6.75
2018-04-27T00:24:41.360Z,6.82
2018-04-27T00:25:41.307Z,6.82
2018-04-27T00:26:41.263Z,6.82
2018-04-27T00:27:41.217Z,6.82
2018-04-27T00:28:41.173Z,6.85
2018-04-27T00:29:41.125Z,6.75
2018-04-27T00:30:41.082Z,6.82
2018-04-27T00:31:41.034Z,6.74
2018-04-27T00:32:40.988Z,6.74
2018-04-27T00:33:40.942Z,6.83
2018-04-27T00:34:40.897Z,6.86
2018-04-27T00:35:40.852Z,6.85
2018-04-27T00:36:40.818Z,6.89
2018-04-27T00:37:40.762Z,6.87
2018-04-27T00:38:40.719Z,6.80
2018-04-27T00:39:40.669Z,6.85
2018-04-27T00:40:40.620Z,6.86
2018-04-27T00:41:40.576Z,6.86
2018-04-27T00:42:40.532Z,6.89
2018-04-27T00:43:40.486Z,6.83
2018-04-27T00:44:40.439Z,6.90
2018-04-27T00:45:40.394Z,6.89
2018-04-27T00:46:40.350Z,6.87
2018-04-27T00:47:40.305Z,6.86
2018-04-27T00:48:40.258Z,6.90
2018-04-27T00:49:40.218Z,6.87
2018-04-27T00:50:40.172Z,6.85
2018-04-27T00:51:40.123Z,6.87
2018-04-27T00:52:40.107Z,6.87
2018-04-27T00:53:40.028Z,6.92
2018-04-27T00:54:39.985Z,6.85
2018-04-27T00:55:39.940Z,6.92
2018-04-27T00:56:39.894Z,6.89
2018-04-27T00:57:39.846Z,6.89
2018-04-27T00:58:39.803Z,6.86
2018-04-27T00:59:39.758Z,6.82
2018-04-27T01:00:39.706Z,6.89
2018-04-27T01:01:39.665Z,6.86
2018-04-27T01:02:39.617Z,6.86
2018-04-27T01:03:39.570Z,6.86
2018-04-27T01:04:39.526Z,6.85
2018-04-27T01:05:39.478Z,6.89
2018-04-27T01:06:39.435Z,6.82
2018-04-27T01:07:39.391Z,6.83
2018-04-27T01:08:39.343Z,6.85
2018-04-27T01:09:39.299Z,6.83
2018-04-27T01:10:39.253Z,6.85
2018-04-27T01:11:39.206Z,6.85
2018-04-27T01:12:39.159Z,6.80
2018-04-27T01:13:39.113Z,6.82
2018-04-27T01:14:39.069Z,6.85
2018-04-27T01:15:39.024Z,6.89
2018-04-27T01:16:38.976Z,6.78
2018-04-27T01:17:38.929Z,6.82
2018-04-27T01:18:38.885Z,6.74
2018-04-27T01:19:38.840Z,6.74
2018-04-27T01:20:38.794Z,6.83
2018-04-27T01:21:38.748Z,6.78
2018-04-27T01:22:38.704Z,6.72
2018-04-27T01:23:38.660Z,6.74
2018-04-27T01:24:38.610Z,6.72
2018-04-27T01:25:38.564Z,6.72
2018-04-27T01:26:38.522Z,6.78
2018-04-27T01:27:38.475Z,6.85
2018-04-27T01:28:38.429Z,6.75
2018-04-27T01:29:38.380Z,6.75
2018-04-27T01:30:38.335Z,6.74
2018-04-27T01:31:38.288Z,6.75
2018-04-27T01:32:38.241Z,6.75
2018-04-27T01:33:38.196Z,6.75
2018-04-27T01:34:38.151Z,6.75
2018-04-27T01:35:38.108Z,6.82
2018-04-27T01:36:38.059Z,6.77
2018-04-27T01:37:38.016Z,6.74
2018-04-27T01:38:37.968Z,6.75
2018-04-27T01:39:37.925Z,6.74
2018-04-27T01:40:37.875Z,6.71
2018-04-27T01:41:37.835Z,6.70
2018-04-27T01:42:37.784Z,6.77
2018-04-27T01:43:37.739Z,6.75
2018-04-27T01:44:37.693Z,6.71
2018-04-27T01:45:37.646Z,6.74
2018-04-27T01:46:37.604Z,6.75
2018-04-27T01:47:37.554Z,6.75
2018-04-27T01:48:37.511Z,6.75
2018-04-27T01:49:37.466Z,6.68
2018-04-27T01:50:37.420Z,6.68
2018-04-27T01:51:37.372Z,6.77
2018-04-27T01:52:37.331Z,6.64
2018-04-27T01:53:37.281Z,6.68
2018-04-27T01:54:37.236Z,6.68
2018-04-27T01:55:37.191Z,6.67
2018-04-27T01:56:37.145Z,6.70
2018-04-27T01:57:37.098Z,6.68
2018-04-27T01:58:37.054Z,6.67
2018-04-27T01:59:37.008Z,6.67
2018-04-27T02:00:36.961Z,6.68
2018-04-27T02:01:36.915Z,6.75
2018-04-27T02:02:36.870Z,6.70
2018-04-27T02:03:36.822Z,6.64
2018-04-27T02:04:36.776Z,6.62
2018-04-27T02:05:36.736Z,6.68
2018-04-27T02:06:36.687Z,6.65
2018-04-27T02:07:36.641Z,6.64
2018-04-27T02:08:36.594Z,6.59
2018-04-27T02:09:36.547Z,6.60
2018-04-27T02:10:36.502Z,6.56
2018-04-27T02:11:36.455Z,6.60
2018-04-27T02:12:36.409Z,6.53
2018-04-27T02:13:36.364Z,6.57
2018-04-27T02:14:36.319Z,6.53
2018-04-27T02:15:36.272Z,6.53
2018-04-27T02:16:36.228Z,6.47
2018-04-27T02:17:36.180Z,6.56
2018-04-27T02:18:36.135Z,6.53
2018-04-27T02:19:36.089Z,6.53
2018-04-27T02:20:36.044Z,6.53
2018-04-27T02:21:35.996Z,6.60
2018-04-27T02:22:35.953Z,6.54
2018-04-27T02:23:35.904Z,6.57
2018-04-27T02:24:35.860Z,6.57
2018-04-27T02:25:35.811Z,6.54
2018-04-27T02:26:35.768Z,6.56
2018-04-27T02:27:35.721Z,6.49
2018-04-27T02:28:35.679Z,6.44
2018-04-27T02:29:35.630Z,6.57
2018-04-27T02:30:35.586Z,6.49
2018-04-27T02:31:35.550Z,6.49
2018-04-27T02:32:35.492Z,6.52
2018-04-27T02:33:35.445Z,6.59
2018-04-27T02:34:35.400Z,6.57
2018-04-27T02:35:35.353Z,6.52
2018-04-27T02:36:35.306Z,6.50
2018-04-27T02:37:35.261Z,6.56
2018-04-27T02:38:35.214Z,6.49
2018-04-27T02:39:35.176Z,6.50
2018-04-27T02:40:35.122Z,6.52
2018-04-27T02:41:35.080Z,6.41
2018-04-27T02:42:35.043Z,6.53
2018-04-27T02:43:34.987Z,6.53
2018-04-27T02:44:34.939Z,6.47
2018-04-27T02:45:34.892Z,6.50
2018-04-27T02:46:34.847Z,6.50
2018-04-27T02:47:34.800Z,6.52
2018-04-27T02:48:34.757Z,6.39
2018-04-27T02:49:34.709Z,6.49
2018-04-27T02:50:34.664Z,6.47
2018-04-27T02:51:34.633Z,6.49
2018-04-27T02:52:34.575Z,6.49
2018-04-27T02:53:34.528Z,6.47
2018-04-27T02:54:34.482Z,6.50
2018-04-27T02:55:34.433Z,6.44
2018-04-27T02:56:34.387Z,6.43
2018-04-27T02:57:34.340Z,6.46
2018-04-27T02:58:34.296Z,6.49
2018-04-27T02:59:34.249Z,6.46
2018-04-27T03:00:34.208Z,6.47
2018-04-27T03:01:34.157Z,6.46
2018-04-27T03:02:34.111Z,6.49
2018-04-27T03:03:34.067Z,6.43
2018-04-27T03:04:34.021Z,6.44
2018-04-27T03:05:33.978Z,6.44
2018-04-27T03:06:33.929Z,6.41
2018-04-27T03:07:33.885Z,6.39
2018-04-27T03:08:33.839Z,6.43
2018-04-27T03:09:33.790Z,6.46
2018-04-27T03:10:33.746Z,6.39
2018-04-27T03:11:33.699Z,6.41
2018-04-27T03:12:33.652Z,6.39
2018-04-27T03:13:33.608Z,6.39
2018-04-27T03:14:33.560Z,6.29
2018-04-27T03:15:33.515Z,6.35
2018-04-27T03:16:33.467Z,6.34
2018-04-27T03:17:33.420Z,6.34
2018-04-27T03:18:33.378Z,6.34
2018-04-27T03:19:33.330Z,6.31
2018-04-27T03:20:33.283Z,6.36
2018-04-27T03:21:33.238Z,6.28
2018-04-27T03:22:33.190Z,6.31
2018-04-27T03:23:33.146Z,6.29
2018-04-27T03:24:33.099Z,6.26
2018-04-27T03:25:33.051Z,6.28
2018-04-27T03:26:33.008Z,6.28
2018-04-27T03:27:32.963Z,6.26
2018-04-27T03:28:32.915Z,6.20
2018-04-27T03:29:32.867Z,6.25
2018-04-27T03:30:32.830Z,6.22
2018-04-27T03:31:32.780Z,6.22
2018-04-27T03:32:32.733Z,6.25
2018-04-27T03:33:32.685Z,6.20
2018-04-27T03:34:32.638Z,6.26
2018-04-27T03:35:32.597Z,6.19
2018-04-27T03:36:32.546Z,6.20
2018-04-27T03:37:32.501Z,6.22
2018-04-27T03:38:32.456Z,6.20
2018-04-27T03:39:32.409Z,6.12
2018-04-27T03:40:32.360Z,6.15
2018-04-27T03:41:32.314Z,6.16
2018-04-27T03:42:32.269Z,6.19
2018-04-27T03:43:32.225Z,6.16
2018-04-27T03:44:32.178Z,6.10
2018-04-27T03:45:32.133Z,6.09
2018-04-27T03:46:32.085Z,6.12
2018-04-27T03:47:32.044Z,6.13
2018-04-27T03:48:31.991Z,6.06
2018-04-27T03:49:31.946Z,6.10
2018-04-27T03:50:31.898Z,6.12
2018-04-27T03:51:31.857Z,6.12
2018-04-27T03:52:31.806Z,6.01
2018-04-27T03:53:31.760Z,5.97
2018-04-27T03:54:31.714Z,5.97
2018-04-27T03:55:31.674Z,5.99
2018-04-27T03:56:31.621Z,6.05
2018-04-27T03:57:31.577Z,6.02
2018-04-27T03:58:31.533Z,6.05
2018-04-27T03:59:31.486Z,6.05
2018-04-27T04:00:31.438Z,6.06
2018-04-27T04:01:31.393Z,6.05
2018-04-27T04:02:31.359Z,5.95
2018-04-27T04:03:31.298Z,6.06
2018-04-27T04:04:31.254Z,6.01
2018-04-27T04:05:31.213Z,5.91
2018-04-27T04:06:31.161Z,5.90
2018-04-27T04:07:31.113Z,5.91
2018-04-27T04:08:31.068Z,5.92
2018-04-27T04:09:31.025Z,5.88
2018-04-27T04:10:30.975Z,5.87
2018-04-27T04:11:30.934Z,5.91
2018-04-27T04:12:30.884Z,5.94
2018-04-27T04:13:30.835Z,5.84
2018-04-27T04:14:30.789Z,5.83
2018-04-27T04:15:30.742Z,5.81
2018-04-27T04:16:30.700Z,5.81
2018-04-27T04:17:30.653Z,5.84
2018-04-27T04:18:30.608Z,5.81
2018-04-27T04:19:30.562Z,5.77
2018-04-27T04:20:30.534Z,5.83
2018-04-27T04:21:30.466Z,5.81
2018-04-27T04:22:30.430Z,5.83
2018-04-27T04:23:30.371Z,5.83
2018-04-27T04:24:30.328Z,5.83
2018-04-27T04:25:30.282Z,5.79
2018-04-27T04:26:30.239Z,5.77
2018-04-27T04:27:30.187Z,5.80
2018-04-27T04:28:30.140Z,5.77
2018-04-27T04:29:30.097Z,5.79
2018-04-27T04:30:30.048Z,5.74
2018-04-27T04:31:30.007Z,5.80
2018-04-27T04:32:29.955Z,5.79
2018-04-27T04:33:29.907Z,5.76
2018-04-27T04:34:29.862Z,5.76
2018-04-27T04:35:29.826Z,5.80
2018-04-27T04:36:29.771Z,5.79
2018-04-27T04:37:29.723Z,5.80
2018-04-27T04:38:29.681Z,5.79
2018-04-27T04:39:29.631Z,5.84
2018-04-27T04:40:29.585Z,5.80
2018-04-27T04:41:29.537Z,5.84
2018-04-27T04:42:29.497Z,5.83
2018-04-27T04:43:29.446Z,5.88
2018-04-27T04:44:29.403Z,5.90
2018-04-27T04:45:29.354Z,5.90
2018-04-27T04:46:29.310Z,5.88
2018-04-27T04:47:29.260Z,5.84
2018-04-27T04:48:29.213Z,5.90
2018-04-27T04:49:29.170Z,5.95
2018-04-27T04:50:29.118Z,5.98
2018-04-27T04:51:29.076Z,6.01
2018-04-27T04:52:29.077Z,6.01
2018-04-27T04:53:28.981Z,6.06
2018-04-27T04:54:28.934Z,6.05
2018-04-27T04:55:28.888Z,6.02
2018-04-27T04:56:28.843Z,6.07
2018-04-27T04:57:28.797Z,6.17
2018-04-27T04:58:28.750Z,6.12
2018-04-27T04:59:28.717Z,6.19
2018-04-27T05:00:28.658Z,6.22
2018-04-27T05:01:28.615Z,6.20
2018-04-27T05:02:28.569Z,6.26
2018-04-27T05:03:28.520Z,6.20
2018-04-27T05:04:28.474Z,6.35
2018-04-27T05:05:28.428Z,6.35
2018-04-27T05:06:28.379Z,6.36
2018-04-27T05:07:28.335Z,6.46
2018-04-27T05:08:28.287Z,6.39
2018-04-27T05:09:28.243Z,6.44
2018-04-27T05:10:28.200Z,6.56
2018-04-27T05:11:28.149Z,6.52
2018-04-27T05:12:28.103Z,6.59
2018-04-27T05:13:28.058Z,6.57
2018-04-27T05:14:28.013Z,6.70
2018-04-27T05:15:27.979Z,6.70
2018-04-27T05:16:27.920Z,6.71
2018-04-27T05:17:27.874Z,6.83
2018-04-27T05:18:27.827Z,6.87
2018-04-27T05:19:27.785Z,6.87
2018-04-27T05:20:27.741Z,6.85
2018-04-27T05:21:27.690Z,7.00
2018-04-27T05:22:27.649Z,7.03
2018-04-27T05:23:27.600Z,7.00
2018-04-27T05:24:27.553Z,7.11
2018-04-27T05:25:27.527Z,7.11
2018-04-27T05:26:27.462Z,7.25
2018-04-27T05:27:27.415Z,7.25
2018-04-27T05:28:27.372Z,7.28
2018-04-27T05:29:27.323Z,7.26
2018-04-27T05:30:27.277Z,7.33
2018-04-27T05:31:27.235Z,7.41
2018-04-27T05:32:27.186Z,7.41
2018-04-27T05:33:27.142Z,7.50
2018-04-27T05:34:27.096Z,7.50
2018-04-27T05:35:27.050Z,7.64
2018-04-27T05:36:27.004Z,7.61
2018-04-27T05:37:26.958Z,7.70
2018-04-27T05:38:26.914Z,7.69
2018-04-27T05:39:26.867Z,7.75
2018-04-27T05:40:26.821Z,7.88
2018-04-27T05:41:26.779Z,7.85
2018-04-27T05:42:26.730Z,7.99
2018-04-27T05:43:26.733Z,7.96
2018-04-27T05:44:26.641Z,7.99
2018-04-27T05:45:26.599Z,8.06
2018-04-27T05:46:26.549Z,8.14
2018-04-27T05:47:26.504Z,8.14
2018-04-27T05:48:26.464Z,8.18
2018-04-27T05:49:26.414Z,8.26
2018-04-27T05:50:26.369Z,8.28
2018-04-27T05:51:26.325Z,8.34
2018-04-27T05:52:26.280Z,8.32
2018-04-27T05:53:26.236Z,8.41
2018-04-27T05:54:26.196Z,8.34
2018-04-27T05:56:26.100Z,8.45
2018-04-27T05:57:26.064Z,8.50
2018-04-27T05:58:26.015Z,8.53
2018-04-27T05:59:25.971Z,8.46
2018-04-27T06:00:25.926Z,8.59
2018-04-27T06:01:25.876Z,8.60
2018-04-27T06:02:25.831Z,8.64
2018-04-27T06:03:25.789Z,8.63
2018-04-27T06:04:25.740Z,8.71
2018-04-27T06:05:25.699Z,8.66
2018-04-27T06:06:25.648Z,8.69
2018-04-27T06:07:25.609Z,8.84
2018-04-27T06:08:25.559Z,8.86
2018-04-27T06:09:25.547Z,8.95
2018-04-27T06:10:25.518Z,8.86
2018-04-27T06:11:25.427Z,8.96
2018-04-27T06:12:25.380Z,9.02
2018-04-27T06:13:25.333Z,9.11
2018-04-27T06:14:25.290Z,9.18
2018-04-27T06:15:25.245Z,9.15
2018-04-27T06:16:25.201Z,9.29
2018-04-27T06:17:25.154Z,9.18
2018-04-27T06:18:25.113Z,9.27
2018-04-27T06:19:25.066Z,9.40
2018-04-27T06:20:25.020Z,9.40
2018-04-27T06:21:24.977Z,9.40
2018-04-27T06:22:24.931Z,9.44
2018-04-27T06:23:24.886Z,9.48
2018-04-27T06:24:24.841Z,9.56
2018-04-27T06:25:24.800Z,9.54
2018-04-27T06:26:24.754Z,9.63
2018-04-27T06:27:24.711Z,9.69
2018-04-27T06:28:24.664Z,9.73
2018-04-27T06:29:24.621Z,9.72
2018-04-27T06:30:24.577Z,9.85
2018-04-27T06:31:24.533Z,9.87
2018-04-27T06:32:24.486Z,9.82
2018-04-27T06:33:24.440Z,9.94
2018-04-27T06:34:24.397Z,10.00
2018-04-27T06:35:24.352Z,10.06
2018-04-27T06:36:24.307Z,10.03
2018-04-27T06:37:24.265Z,10.17
2018-04-27T06:38:24.222Z,10.15
2018-04-27T06:39:24.225Z,10.17
2018-04-27T06:40:24.129Z,10.27
2018-04-27T06:41:24.088Z,10.27
2018-04-27T06:42:24.048Z,10.41
2018-04-27T06:43:24.001Z,10.34
2018-04-27T06:44:23.952Z,10.51
2018-04-27T06:45:23.910Z,10.43
2018-04-27T06:46:23.868Z,10.49
2018-04-27T06:47:23.825Z,10.61
2018-04-27T06:48:23.775Z,10.65
2018-04-27T06:49:23.732Z,10.71
2018-04-27T06:50:23.695Z,10.79
2018-04-27T06:51:23.643Z,10.80
2018-04-27T06:52:23.603Z,10.86
2018-04-27T06:53:23.557Z,10.89
2018-04-27T06:54:23.512Z,10.84
2018-04-27T06:55:23.468Z,10.94
2018-04-27T06:56:23.426Z,11.05
2018-04-27T06:57:23.379Z,11.04
2018-04-27T06:58:23.335Z,11.04
2018-04-27T06:59:23.335Z,11.16
2018-04-27T07:00:23.258Z,11.20
2018-04-27T07:01:23.213Z,11.26
2018-04-27T07:02:23.172Z,11.34
2018-04-27T07:03:23.115Z,11.38
2018-04-27T07:04:23.073Z,11.43
2018-04-27T07:05:23.038Z,11.45
2018-04-27T07:06:22.988Z,11.49
2018-04-27T07:07:22.942Z,11.59
2018-04-27T07:08:22.898Z,11.68
2018-04-27T07:09:22.854Z,11.73
2018-04-27T07:10:22.810Z,11.74
2018-04-27T07:11:22.766Z,11.85
2018-04-27T07:12:22.723Z,11.95
2018-04-27T07:13:22.680Z,12.07
2018-04-27T07:14:22.639Z,12.00
2018-04-27T07:15:22.593Z,12.15
2018-04-27T07:16:22.549Z,12.21
2018-04-27T07:17:22.509Z,12.30
2018-04-27T07:18:22.462Z,12.40
2018-04-27T07:19:22.418Z,12.44
2018-04-27T07:20:22.373Z,12.58
2018-04-27T07:21:22.333Z,12.62
2018-04-27T07:22:22.291Z,12.81
2018-04-27T07:23:22.247Z,12.80
2018-04-27T07:24:22.248Z,12.93
2018-04-27T07:25:22.197Z,12.99
2018-04-27T07:26:22.118Z,13.17
2018-04-27T07:27:22.073Z,13.28
2018-04-27T07:28:22.031Z,13.39
2018-04-27T07:29:21.987Z,13.36
2018-04-27T07:30:21.942Z,13.49
2018-04-27T07:31:21.901Z,13.57
2018-04-27T07:32:21.857Z,13.65
2018-04-27T07:33:21.820Z,13.73
2018-04-27T07:35:21.732Z,14.13
2018-04-27T07:36:21.686Z,14.37
2018-04-27T07:37:21.644Z,14.52
2018-04-27T07:38:21.604Z,14.85
2018-04-27T07:39:21.559Z,14.97
2018-04-27T07:40:21.517Z,15.14
2018-04-27T07:41:21.477Z,15.33
2018-04-27T07:42:21.431Z,15.57
2018-04-27T07:43:21.387Z,15.72
2018-04-27T07:44:21.349Z,15.65
2018-04-27T07:45:21.388Z,15.69
2018-04-27T07:46:21.353Z,15.83
2018-04-27T07:47:21.313Z,15.83
2018-04-27T07:48:21.180Z,15.91
2018-04-27T07:49:21.141Z,16.02
2018-04-27T07:50:21.099Z,16.16
2018-04-27T07:51:21.053Z,16.31
2018-04-27T07:52:21.011Z,16.32
2018-04-27T07:53:20.970Z,16.39
2018-04-27T07:54:20.928Z,16.59
2018-04-27T07:55:20.897Z,16.69
2018-04-27T07:56:20.848Z,16.80
2018-04-27T07:57:20.807Z,16.91
2018-04-27T07:58:20.765Z,17.04
2018-04-27T07:59:20.723Z,16.98
2018-04-27T08:00:20.681Z,16.86
2018-04-27T08:01:20.642Z,16.97
2018-04-27T08:02:20.670Z,16.92
2018-04-27T08:03:20.562Z,16.97
2018-04-27T08:04:20.521Z,16.99
2018-04-27T08:05:20.476Z,16.94
2018-04-27T08:06:20.439Z,17.09
2018-04-27T08:08:20.358Z,17.10
2018-04-27T08:09:20.316Z,16.92
2018-04-27T08:10:20.275Z,16.92
2018-04-27T08:12:20.191Z,17.57
2018-04-27T08:13:20.151Z,17.56
2018-04-27T08:14:20.108Z,17.78
2018-04-27T08:16:20.031Z,18.00
2018-04-27T08:17:19.986Z,18.03
2018-04-27T08:18:19.945Z,18.21
2018-04-27T08:19:19.905Z,18.33
2018-04-27T08:20:19.864Z,18.49
2018-04-27T08:21:19.825Z,18.64
2018-04-27T08:22:19.785Z,18.85
2018-04-27T08:23:19.746Z,18.89
2018-04-27T08:24:19.703Z,19.22
2018-04-27T08:25:19.664Z,19.09
2018-04-27T08:26:19.625Z,19.07
2018-04-27T08:27:19.583Z,18.83
2018-04-27T08:28:19.548Z,19.16
2018-04-27T08:29:19.505Z,19.30
2018-04-27T08:30:19.531Z,19.35
2018-04-27T08:31:19.424Z,19.23
2018-04-27T08:32:19.390Z,19.26
2018-04-27T08:33:19.347Z,19.48
2018-04-27T08:34:19.364Z,19.52
2018-04-27T08:35:19.267Z,19.55
2018-04-27T08:36:19.224Z,19.71
2018-04-27T08:37:19.187Z,19.87
2018-04-27T08:38:19.146Z,19.87
2018-04-27T08:39:19.106Z,19.81
2018-04-27T08:40:19.065Z,19.96
2018-04-27T08:41:19.028Z,20.29
2018-04-27T08:42:18.989Z,20.44
2018-04-27T08:43:18.961Z,20.42
2018-04-27T08:44:18.907Z,20.37
2018-04-27T08:45:18.875Z,20.34
2018-04-27T08:46:18.831Z,20.39
2018-04-27T08:47:18.792Z,20.33
2018-04-27T08:48:18.754Z,20.24
2018-04-27T08:49:18.715Z,20.17
2018-04-27T08:50:18.681Z,20.07
2018-04-27T08:51:18.637Z,20.11
2018-04-27T08:52:18.599Z,20.00
2018-04-27T08:53:18.557Z,20.10
2018-04-27T08:54:18.531Z,20.03
2018-04-27T08:55:18.479Z,20.00
2018-04-27T08:56:18.438Z,20.02
2018-04-27T08:57:18.404Z,20.02
2018-04-27T08:58:18.369Z,20.14
2018-04-27T08:59:18.323Z,20.11
2018-04-27T09:00:18.284Z,20.08
2018-04-27T09:01:18.245Z,20.10
2018-04-27T09:02:18.209Z,19.99
2018-04-27T09:03:18.168Z,19.99
2018-04-27T09:04:18.129Z,19.94
2018-04-27T09:05:18.091Z,19.92
2018-04-27T09:06:18.098Z,19.90
2018-04-27T09:07:18.015Z,19.79
2018-04-27T09:08:17.975Z,19.82
2018-04-27T09:09:17.936Z,19.75
2018-04-27T09:10:17.899Z,19.78
2018-04-27T09:11:17.864Z,19.79
2018-04-27T09:12:17.819Z,19.90
2018-04-27T09:13:17.782Z,20.00
2018-04-27T09:14:17.745Z,19.96
2018-04-27T09:15:17.707Z,20.02
2018-04-27T09:16:17.673Z,20.08
2018-04-27T09:17:17.626Z,20.08
2018-04-27T09:18:17.588Z,20.11
2018-04-27T09:19:17.550Z,20.11
2018-04-27T09:20:17.517Z,20.14
2018-04-27T09:21:17.472Z,20.10
2018-04-27T09:22:17.433Z,20.15
2018-04-27T09:23:17.396Z,20.02
2018-04-27T09:24:17.363Z,19.79
2018-04-27T09:25:17.321Z,19.77
2018-04-27T09:26:17.278Z,19.63
2018-04-27T09:27:17.242Z,19.57
2018-04-27T09:28:17.202Z,19.57
2018-04-27T09:29:17.162Z,19.55
2018-04-27T09:30:17.123Z,19.70
2018-04-27T09:31:17.088Z,19.71
2018-04-27T09:32:17.070Z,19.72
2018-04-27T09:33:17.007Z,19.75
2018-04-27T09:34:16.972Z,19.79
2018-04-27T09:35:16.932Z,19.84
2018-04-27T09:36:16.893Z,19.82
2018-04-27T09:37:16.852Z,19.81
2018-04-27T09:38:16.816Z,19.78
2018-04-27T09:39:16.781Z,19.72
2018-04-27T09:40:16.739Z,19.74
2018-04-27T09:41:16.701Z,19.77
2018-04-27T09:42:16.674Z,19.81
2018-04-27T09:43:16.625Z,19.85
2018-04-27T09:44:16.583Z,19.78
2018-04-27T09:45:16.545Z,19.84
2018-04-27T09:46:16.506Z,19.82
2018-04-27T09:47:16.470Z,19.72
2018-04-27T09:48:16.430Z,19.77
2018-04-27T09:49:16.391Z,19.75
2018-04-27T09:50:16.358Z,19.78
2018-04-27T09:51:16.334Z,19.75
2018-04-27T09:52:16.299Z,19.89
2018-04-27T09:53:16.264Z,19.77
2018-04-27T09:54:16.279Z,19.75
2018-04-27T09:55:16.176Z,19.71
2018-04-27T09:56:16.153Z,19.70
2018-04-27T09:57:16.083Z,19.79
2018-04-27T09:58:16.048Z,19.89
2018-04-27T09:59:16.009Z,19.90
2018-04-27T10:00:15.967Z,19.92
2018-04-27T10:01:15.928Z,19.75
2018-04-27T10:02:15.887Z,19.78
2018-04-27T10:03:15.850Z,19.87
2018-04-27T10:04:15.811Z,19.89
2018-04-27T10:05:15.770Z,19.89
2018-04-27T10:06:15.737Z,19.85
2018-04-27T10:07:15.695Z,19.89
2018-04-27T10:08:15.657Z,19.93
2018-04-27T10:09:15.616Z,19.89
2018-04-27T10:10:15.579Z,20.02
2018-04-27T10:11:15.540Z,19.99
2018-04-27T10:12:15.502Z,20.14
2018-04-27T10:13:15.467Z,20.00
2018-04-27T10:14:15.427Z,19.96
2018-04-27T10:15:15.385Z,19.94
2018-04-27T10:16:15.354Z,19.87
2018-04-27T10:17:15.316Z,19.96
2018-04-27T10:18:15.272Z,19.94
2018-04-27T10:19:15.243Z,20.10
2018-04-27T10:20:15.197Z,20.07
2018-04-27T10:21:15.160Z,20.07
2018-04-27T10:22:15.122Z,20.19
2018-04-27T10:23:15.080Z,20.21
2018-04-27T10:24:15.040Z,20.32
2018-04-27T10:25:15.000Z,20.27
2018-04-27T10:26:14.963Z,20.27
2018-04-27T10:27:14.923Z,20.40
2018-04-27T10:28:14.886Z,20.42
2018-04-27T10:29:14.944Z,20.39
2018-04-27T10:30:14.811Z,20.37
2018-04-27T10:31:14.773Z,20.39
2018-04-27T10:32:14.735Z,20.37
2018-04-27T10:33:14.696Z,20.52
2018-04-27T10:34:14.655Z,20.55
2018-04-27T10:35:14.616Z,20.64
2018-04-27T10:36:14.576Z,20.64
2018-04-27T10:37:14.539Z,20.67
2018-04-27T10:38:14.501Z,20.70
2018-04-27T10:39:14.462Z,20.64
2018-04-27T10:40:14.423Z,20.48
2018-04-27T10:41:14.385Z,20.39
2018-04-27T10:42:14.347Z,20.49
2018-04-27T10:43:14.310Z,20.60
2018-04-27T10:44:14.271Z,20.55
2018-04-27T10:45:14.232Z,20.59
2018-04-27T10:46:14.197Z,20.53
2018-04-27T10:47:14.157Z,20.60
2018-04-27T10:48:14.117Z,20.71
2018-04-27T10:49:14.077Z,20.77
2018-04-27T10:50:14.087Z,20.71
2018-04-27T10:51:14.001Z,20.95
2018-04-27T10:52:13.961Z,21.13
2018-04-27T10:53:13.934Z,21.32
2018-04-27T10:54:13.890Z,21.28
2018-04-27T10:55:13.850Z,21.37
2018-04-27T10:56:13.811Z,21.51
2018-04-27T10:57:13.771Z,21.48
2018-04-27T10:58:13.734Z,21.53
2018-04-27T10:59:13.697Z,21.44
2018-04-27T11:00:13.661Z,21.48
2018-04-27T11:01:13.621Z,21.59
2018-04-27T11:02:13.583Z,21.62
2018-04-27T11:03:13.544Z,21.68
2018-04-27T11:04:13.508Z,21.74
2018-04-27T11:05:13.470Z,21.75
2018-04-27T11:06:13.436Z,21.75
2018-04-27T11:07:13.400Z,21.78
2018-04-27T11:08:13.357Z,21.94
2018-04-27T11:09:13.324Z,21.91
2018-04-27T11:10:13.282Z,21.80
2018-04-27T11:11:13.248Z,21.84
2018-04-27T11:12:13.204Z,21.99
2018-04-27T11:13:13.168Z,22.04
2018-04-27T11:14:13.133Z,22.34
2018-04-27T11:15:13.098Z,22.59
2018-04-27T11:16:13.060Z,22.84
2018-04-27T11:17:13.020Z,22.92
2018-04-27T11:18:12.981Z,22.95
2018-04-27T11:19:12.947Z,23.06
2018-04-27T11:20:12.915Z,23.14
2018-04-27T11:21:12.870Z,23.21
2018-04-27T11:22:12.835Z,23.18
2018-04-27T11:23:12.797Z,23.47
2018-04-27T11:24:12.761Z,23.64
2018-04-27T11:25:12.728Z,23.81
2018-04-27T11:26:12.690Z,23.81
2018-04-27T11:27:12.651Z,23.86
2018-04-27T11:28:12.617Z,23.92
2018-04-27T11:29:12.579Z,24.18
2018-04-27T11:30:12.542Z,24.25
2018-04-27T11:31:12.506Z,24.26
2018-04-27T11:32:12.471Z,24.29
2018-04-27T11:33:12.438Z,24.29
2018-04-27T11:34:12.395Z,24.37
2018-04-27T11:35:12.382Z,24.37
2018-04-27T11:36:12.330Z,24.36
2018-04-27T11:37:12.292Z,24.38
2018-04-27T11:38:12.259Z,24.38
2018-04-27T11:39:12.218Z,24.26
2018-04-27T11:40:12.183Z,24.34
2018-04-27T11:41:12.165Z,24.51
2018-04-27T11:42:12.113Z,24.77
2018-04-27T11:43:12.076Z,25.01
2018-04-27T11:44:12.039Z,25.01
2018-04-27T11:45:12.009Z,25.14
2018-04-27T11:46:11.973Z,25.24
2018-04-27T11:47:11.933Z,25.52
2018-04-27T11:48:11.899Z,25.54
2018-04-27T11:49:11.868Z,25.51
2018-04-27T11:50:11.830Z,25.67
2018-04-27T11:51:11.794Z,25.93
2018-04-27T11:52:11.759Z,26.10
2018-04-27T11:53:11.764Z,26.15
2018-04-27T11:54:11.692Z,26.06
2018-04-27T11:55:11.655Z,26.04
2018-04-27T11:56:11.621Z,26.24
2018-04-27T11:57:11.590Z,26.29
2018-04-27T11:58:11.556Z,26.41
2018-04-27T11:59:11.520Z,26.41
2018-04-27T12:00:11.488Z,26.37
2018-04-27T12:01:11.454Z,26.18
2018-04-27T12:02:11.418Z,26.18
2018-04-27T12:03:11.383Z,26.22
2018-04-27T12:04:11.351Z,26.24
2018-04-27T12:05:11.323Z,26.39
2018-04-27T12:06:11.282Z,26.26
2018-04-27T12:07:11.250Z,26.27
2018-04-27T12:08:11.213Z,26.15
2018-04-27T12:09:11.178Z,26.04
2018-04-27T12:10:11.149Z,26.06
2018-04-27T12:11:11.111Z,25.91
2018-04-27T12:12:11.079Z,25.77
2018-04-27T12:13:11.048Z,25.56
2018-04-27T12:14:11.014Z,25.44
2018-04-27T12:15:10.976Z,25.55
2018-04-27T12:16:10.939Z,25.44
2018-04-27T12:17:10.907Z,25.44
2018-04-27T12:18:10.871Z,25.61
2018-04-27T12:19:10.838Z,25.55
2018-04-27T12:20:10.806Z,25.55
2018-04-27T12:21:10.771Z,25.52
2018-04-27T12:22:10.736Z,25.37
2018-04-27T12:23:10.702Z,25.26
2018-04-27T12:24:10.667Z,25.09
2018-04-27T12:25:10.631Z,24.96
2018-04-27T12:26:10.595Z,24.82
2018-04-27T12:27:10.562Z,24.68
2018-04-27T12:28:10.528Z,24.34
2018-04-27T12:29:10.491Z,24.28
2018-04-27T12:30:10.458Z,24.29
2018-04-27T12:31:10.494Z,24.31
2018-04-27T12:32:10.390Z,24.56
2018-04-27T12:33:10.351Z,24.53
2018-04-27T12:34:10.317Z,24.68
2018-04-27T12:35:10.284Z,24.79
2018-04-27T12:36:10.244Z,24.66
2018-04-27T12:37:10.215Z,24.84
2018-04-27T12:38:10.180Z,24.85
2018-04-27T12:39:10.146Z,25.16
2018-04-27T12:40:10.105Z,25.34
2018-04-27T12:41:10.069Z,25.55
2018-04-27T12:42:10.035Z,25.71
2018-04-27T12:43:10.002Z,25.59
2018-04-27T12:44:09.964Z,25.41
2018-04-27T12:45:09.929Z,25.56
2018-04-27T12:46:09.896Z,25.74
2018-04-27T12:47:09.861Z,26.03
2018-04-27T12:48:09.826Z,25.78
2018-04-27T12:49:09.790Z,25.91
2018-04-27T12:50:09.760Z,25.74
2018-04-27T12:51:09.723Z,25.59
2018-04-27T12:52:09.754Z,25.51
2018-04-27T12:53:09.655Z,25.49
2018-04-27T12:54:09.622Z,25.39
2018-04-27T12:55:09.587Z,25.51
2018-04-27T12:56:09.552Z,25.74
2018-04-27T12:57:09.517Z,26.04
2018-04-27T12:58:09.488Z,25.92
2018-04-27T12:59:09.451Z,26.03
2018-04-27T13:00:09.417Z,25.81
2018-04-27T13:01:09.384Z,25.67
2018-04-27T13:02:09.348Z,25.78
2018-04-27T13:03:09.316Z,25.89
2018-04-27T13:04:09.286Z,25.99
2018-04-27T13:05:09.250Z,26.23
2018-04-27T13:06:09.214Z,26.42
2018-04-27T13:07:09.179Z,26.71
2018-04-27T13:08:09.181Z,26.49
2018-04-27T13:09:09.116Z,26.33
2018-04-27T13:10:09.089Z,26.22